Time;durP1;ratioP1;P1;durP2;ratioP2;P2;SDS_P1;SDS_P2;PMS_P1;PMS_P2;Temp;Humidity;BMP_temperature;BMP_pressure;BME280_temperature;BME280_humidity;BME280_pressure;Samples;Min_cycle;Max_cycle;Signal;HPM_P1;HPM_P2
2023/01/27 00:00:19;;;;;;;15.20;6.10;;;-2.10;99.90;;;;;;4174014;28;20212;-65
2023/01/27 00:02:20;;;;;;;12.37;6.60;;;-2.00;99.90;;;;;;4162369;28;20435;-65
2023/01/27 00:04:22;;;;;;;14.73;6.07;;;-1.90;99.90;;;;;;4180366;28;20425;-65
2023/01/27 00:06:22;;;;;;;12.97;6.43;;;-1.80;99.90;;;;;;4162540;28;20184;-65
2023/01/27 00:08:23;;;;;;;19.07;7.77;;;-1.70;99.90;;;;;;4162373;28;20420;-65
2023/01/27 00:10:25;;;;;;;14.73;6.60;;;-1.70;99.90;;;;;;4179229;28;20239;-65
2023/01/27 00:14:45;;;;;;;16.63;7.33;;;-1.70;99.90;;;;;;4179598;28;20469;-65
2023/01/27 00:16:46;;;;;;;11.73;5.80;;;-1.60;99.90;;;;;;4180472;28;20427;-65
2023/01/27 00:18:47;;;;;;;18.43;7.43;;;-1.60;99.90;;;;;;4162646;28;20185;-65
2023/01/27 00:25:40;;;;;;;16.17;8.03;;;-1.60;99.90;;;;;;4180008;28;20434;-64
2023/01/27 00:27:41;;;;;;;14.60;6.83;;;-1.70;99.90;;;;;;4185921;28;20433;-64
2023/01/27 00:29:42;;;;;;;13.07;6.50;;;-1.60;99.90;;;;;;4195967;28;20216;-65
2023/01/27 00:34:07;;;;;;;11.30;6.17;;;-1.50;99.90;;;;;;4196833;28;20171;-64
2023/01/27 00:36:08;;;;;;;13.23;5.83;;;-1.80;99.90;;;;;;4162847;28;20440;-65
2023/01/27 00:38:09;;;;;;;11.43;6.20;;;-1.80;99.90;;;;;;4178549;28;20438;-65
2023/01/27 00:40:12;;;;;;;13.87;5.30;;;-1.90;99.90;;;;;;4195802;28;20238;-64
2023/01/27 00:42:12;;;;;;;12.00;6.17;;;-1.90;99.90;;;;;;4196689;28;20222;-64
2023/01/27 00:44:13;;;;;;;13.60;6.00;;;-1.80;99.90;;;;;;4178621;28;20437;-64
2023/01/27 00:46:16;;;;;;;12.30;5.93;;;-1.80;99.90;;;;;;4196427;28;20732;-64
2023/01/27 00:48:17;;;;;;;10.70;6.10;;;-1.80;99.90;;;;;;4178325;28;20502;-64
2023/01/27 00:50:21;;;;;;;9.07;4.73;;;-1.90;99.90;;;;;;4195536;28;20818;-64
2023/01/27 00:52:21;;;;;;;12.27;5.90;;;-1.80;99.90;;;;;;4196550;28;20215;-64
2023/01/27 00:54:22;;;;;;;13.67;5.60;;;-2.10;99.90;;;;;;4196698;28;20418;-65
2023/01/27 00:56:23;;;;;;;14.90;6.37;;;-2.20;99.90;;;;;;4195348;28;20184;-65
2023/01/27 00:58:25;;;;;;;12.97;5.63;;;-2.30;99.90;;;;;;4196482;28;20259;-64
2023/01/27 01:00:26;;;;;;;10.10;5.47;;;-2.20;99.90;;;;;;4195755;28;20256;-64
2023/01/27 01:02:26;;;;;;;9.67;4.80;;;-2.10;99.90;;;;;;4196293;28;20528;-64
2023/01/27 01:04:27;;;;;;;10.47;5.33;;;-1.90;99.90;;;;;;4178210;28;20702;-65
2023/01/27 01:06:28;;;;;;;8.93;5.20;;;-2.00;99.90;;;;;;4196033;28;20184;-65
2023/01/27 01:08:33;;;;;;;6.97;4.07;;;-2.00;99.90;;;;;;4196149;28;20184;-64
2023/01/27 01:10:37;;;;;;;6.93;4.13;;;-2.00;99.90;;;;;;4195115;28;20291;-64
2023/01/27 01:12:38;;;;;;;8.57;4.43;;;-2.10;99.90;;;;;;4195646;28;20479;-65
2023/01/27 01:14:39;;;;;;;7.87;5.30;;;-2.10;99.90;;;;;;4195626;28;20500;-64
2023/01/27 01:16:39;;;;;;;7.53;3.80;;;-2.10;99.90;;;;;;4194296;28;20187;-65
2023/01/27 01:18:41;;;;;;;9.03;4.70;;;-2.00;99.90;;;;;;4195712;28;20195;-64
2023/01/27 01:20:44;;;;;;;8.27;4.20;;;-1.90;99.90;;;;;;4177353;28;20229;-64
2023/01/27 01:22:45;;;;;;;8.10;4.10;;;-1.90;99.90;;;;;;4195655;28;20430;-65
2023/01/27 01:24:46;;;;;;;9.53;4.37;;;-1.80;99.90;;;;;;4196185;28;20474;-65
2023/01/27 01:26:47;;;;;;;6.20;3.83;;;-1.90;99.90;;;;;;4196343;28;20198;-65
2023/01/27 01:28:47;;;;;;;8.13;4.20;;;-1.80;99.90;;;;;;4196745;28;20219;-64
2023/01/27 01:30:48;;;;;;;7.30;4.13;;;-1.80;99.90;;;;;;4196828;28;20215;-64
2023/01/27 01:32:49;;;;;;;7.43;4.30;;;-1.80;99.90;;;;;;4196617;28;20176;-64
2023/01/27 01:34:49;;;;;;;6.70;4.23;;;-1.70;99.90;;;;;;4195582;28;20179;-64
2023/01/27 01:36:50;;;;;;;8.60;4.33;;;-1.70;99.90;;;;;;4195839;28;20187;-65
2023/01/27 01:38:55;;;;;;;11.00;4.17;;;-1.70;99.90;;;;;;4195763;28;20183;-64
2023/01/27 01:40:56;;;;;;;9.73;3.87;;;-2.00;99.90;;;;;;4194943;28;20179;-64
2023/01/27 01:42:58;;;;;;;5.83;3.57;;;-2.20;99.90;;;;;;4195343;28;20434;-64
2023/01/27 01:45:30;;;;;;;11.10;3.70;;;-2.10;99.90;;;;;;4177451;28;20187;-64
2023/01/27 01:47:31;;;;;;;7.13;3.47;;;-2.10;99.90;;;;;;4195748;28;20466;-65
2023/01/27 01:49:39;;;;;;;9.37;4.27;;;-1.90;99.90;;;;;;4195226;28;20457;-64
2023/01/27 01:51:44;;;;;;;10.50;4.20;;;-1.90;99.90;;;;;;4177246;28;20175;-64
2023/01/27 01:53:58;;;;;;;11.37;5.27;;;-1.80;99.90;;;;;;4195488;28;20418;-65
2023/01/27 01:56:07;;;;;;;7.37;4.17;;;-1.80;99.90;;;;;;4177426;28;20403;-65
2023/01/27 01:58:10;;;;;;;8.60;4.80;;;-1.70;99.90;;;;;;4177525;28;20403;-65
2023/01/27 02:00:12;;;;;;;11.03;5.80;;;-1.60;99.90;;;;;;4194767;28;20480;-65
2023/01/27 02:02:17;;;;;;;9.40;5.03;;;-1.70;99.90;;;;;;4177355;28;20442;-64
2023/01/27 02:04:24;;;;;;;9.57;4.80;;;-2.10;99.90;;;;;;4172323;28;20427;-65
2023/01/27 02:06:25;;;;;;;11.37;5.53;;;-2.10;99.90;;;;;;4178811;28;20434;-66
2023/01/27 02:08:41;;;;;;;10.57;5.60;;;-2.00;99.90;;;;;;4160928;28;20423;-65
2023/01/27 02:10:42;;;;;;;11.30;6.40;;;-1.90;99.90;;;;;;4160306;28;20459;-65
2023/01/27 02:12:43;;;;;;;9.17;5.23;;;-1.80;99.90;;;;;;4178277;28;20480;-65
2023/01/27 02:14:43;;;;;;;12.33;5.07;;;-1.90;99.90;;;;;;4178476;28;20431;-65
2023/01/27 02:16:45;;;;;;;10.63;5.73;;;-1.90;99.90;;;;;;4144366;28;20177;-65
2023/01/27 02:18:46;;;;;;;10.07;5.50;;;-1.80;99.90;;;;;;4160522;28;20185;-65
2023/01/27 02:20:50;;;;;;;16.67;6.53;;;-1.80;99.90;;;;;;4160595;28;20446;-65
2023/01/27 02:23:47;;;;;;;10.50;5.47;;;-1.90;99.90;;;;;;4179098;28;20687;-65
2023/01/27 02:26:06;;;;;;;13.83;6.87;;;-1.90;99.90;;;;;;4178812;28;20407;-65
2023/01/27 02:28:07;;;;;;;10.93;5.67;;;-1.90;99.90;;;;;;4165606;28;20440;-64
2023/01/27 02:30:09;;;;;;;16.67;6.47;;;-1.80;99.90;;;;;;4194158;28;21029;-64
2023/01/27 02:32:23;;;;;;;14.90;5.87;;;-1.80;99.90;;;;;;4194939;28;20422;-64
2023/01/27 02:34:29;;;;;;;14.03;6.53;;;-1.70;99.90;;;;;;4177281;28;20443;-65
2023/01/27 02:36:35;;;;;;;13.43;6.50;;;-1.70;99.90;;;;;;4160688;28;20463;-65
2023/01/27 02:38:47;;;;;;;17.53;7.70;;;-1.70;99.90;;;;;;4197560;28;20497;-65
2023/01/27 02:40:52;;;;;;;13.13;6.17;;;-1.90;99.90;;;;;;4179874;28;20519;-65
2023/01/27 02:42:55;;;;;;;14.73;6.83;;;-2.10;99.90;;;;;;4180439;28;20427;-65
2023/01/27 02:44:56;;;;;;;15.73;6.20;;;-2.10;99.90;;;;;;4180410;28;20472;-66
2023/01/27 02:46:57;;;;;;;15.80;6.40;;;-2.00;99.90;;;;;;4198017;28;20422;-65
2023/01/27 02:48:57;;;;;;;11.80;6.13;;;-1.90;99.90;;;;;;4197980;28;20927;-65
2023/01/27 02:50:58;;;;;;;11.77;5.80;;;-1.80;99.90;;;;;;4197692;28;20272;-66
2023/01/27 02:52:59;;;;;;;10.30;5.87;;;-1.80;99.90;;;;;;4180282;28;20610;-65
2023/01/27 02:54:59;;;;;;;8.67;5.23;;;-1.70;99.90;;;;;;4180226;28;20573;-65
2023/01/27 02:57:00;;;;;;;34.33;6.70;;;-1.80;99.90;;;;;;4198057;28;20253;-65
2023/01/27 02:59:01;;;;;;;11.63;5.33;;;-2.00;99.90;;;;;;4180193;28;20247;-65
2023/01/27 03:01:02;;;;;;;8.43;4.37;;;-2.30;99.90;;;;;;4179489;28;20195;-65
2023/01/27 03:03:02;;;;;;;10.03;5.37;;;-2.20;99.90;;;;;;4197994;28;20184;-65
2023/01/27 03:05:04;;;;;;;11.67;6.57;;;-2.20;99.90;;;;;;4196631;28;20198;-65
2023/01/27 03:07:05;;;;;;;21.60;5.80;;;-2.20;99.90;;;;;;4180381;28;20188;-65
2023/01/27 03:09:05;;;;;;;9.83;5.90;;;-2.20;99.90;;;;;;4197811;28;20455;-65
2023/01/27 03:11:07;;;;;;;9.07;5.47;;;-2.20;99.90;;;;;;4179379;28;20282;-65
2023/01/27 03:13:08;;;;;;;12.27;6.07;;;-2.10;99.90;;;;;;4173894;28;20220;-65
2023/01/27 03:19:52;;;;;;;10.80;5.97;;;-2.00;99.90;;;;;;4180342;28;20446;-65
2023/01/27 03:21:53;;;;;;;15.23;7.27;;;-1.90;99.90;;;;;;4181377;28;20885;-65
2023/01/27 03:23:53;;;;;;;10.60;5.70;;;-2.00;99.90;;;;;;4146902;28;20443;-68
2023/01/27 03:25:54;;;;;;;10.50;5.43;;;-2.00;99.90;;;;;;4181267;28;20461;-65
2023/01/27 03:27:56;;;;;;;13.33;5.87;;;-2.10;99.90;;;;;;4181344;28;20647;-66
2023/01/27 03:29:56;;;;;;;12.57;6.03;;;-2.50;99.90;;;;;;4162645;28;20307;-66
2023/01/27 03:31:57;;;;;;;12.13;5.50;;;-2.60;99.90;;;;;;4181048;28;20430;-66
2023/01/27 03:33:58;;;;;;;8.30;4.30;;;-2.60;99.90;;;;;;4146982;28;20296;-66
2023/01/27 03:47:39;;;;;;;11.10;5.17;;;-2.30;99.90;;;;;;4197419;28;20413;-66
2023/01/27 03:49:40;;;;;;;10.83;5.73;;;-2.20;99.90;;;;;;4196227;28;20449;-66
2023/01/27 03:51:41;;;;;;;11.60;5.50;;;-2.20;99.90;;;;;;4179433;28;20184;-65
2023/01/27 03:53:41;;;;;;;9.33;5.47;;;-2.30;99.90;;;;;;4197221;28;20176;-66
2023/01/27 03:55:42;;;;;;;11.03;5.33;;;-2.20;99.90;;;;;;4197358;28;20230;-66
2023/01/27 03:57:43;;;;;;;11.30;5.67;;;-2.10;99.90;;;;;;4197100;28;20176;-66
2023/01/27 03:59:43;;;;;;;10.47;5.60;;;-2.10;99.90;;;;;;4196559;28;20689;-66
2023/01/27 04:01:44;;;;;;;10.87;5.40;;;-2.10;99.90;;;;;;4197466;28;20521;-66
2023/01/27 04:08:31;;;;;;;10.17;5.97;;;-2.20;99.90;;;;;;4177777;28;21098;-66
2023/01/27 04:10:31;;;;;;;11.83;6.17;;;-2.20;99.90;;;;;;4162195;28;20552;-65
2023/01/27 04:12:32;;;;;;;11.70;6.37;;;-2.10;99.90;;;;;;4180799;28;20176;-66
2023/01/27 04:14:38;;;;;;;8.70;5.00;;;-2.10;99.90;;;;;;4180604;28;20185;-65
2023/01/27 04:16:39;;;;;;;8.77;4.87;;;-2.00;99.90;;;;;;4162554;28;20262;-66
2023/01/27 04:18:40;;;;;;;8.97;4.90;;;-1.90;99.90;;;;;;4180267;28;20430;-66
2023/01/27 04:20:41;;;;;;;8.33;4.23;;;-1.90;99.90;;;;;;4180107;28;20462;-66
2023/01/27 04:22:41;;;;;;;6.93;3.83;;;-1.90;99.90;;;;;;4180831;28;20282;-65
2023/01/27 04:24:43;;;;;;;8.73;3.50;;;-1.90;99.90;;;;;;4180687;28;20274;-66
2023/01/27 04:26:44;;;;;;;6.07;3.63;;;-2.00;99.90;;;;;;4193233;28;20192;-66
2023/01/27 04:28:46;;;;;;;7.37;3.70;;;-1.90;99.90;;;;;;4197381;28;20434;-66
2023/01/27 04:30:47;;;;;;;4.90;3.37;;;-2.10;99.90;;;;;;4196660;28;20485;-65
2023/01/27 04:32:48;;;;;;;8.30;4.33;;;-2.20;99.90;;;;;;4196985;28;20996;-64
2023/01/27 04:34:49;;;;;;;7.33;3.53;;;-2.30;99.90;;;;;;4179248;28;20430;-65
2023/01/27 04:36:50;;;;;;;6.93;3.77;;;-2.50;99.90;;;;;;4179128;28;20180;-65
2023/01/27 04:38:50;;;;;;;9.37;4.43;;;-2.60;99.90;;;;;;4179215;28;20267;-65
2023/01/27 04:40:51;;;;;;;10.43;4.47;;;-2.50;99.90;;;;;;4196276;28;20187;-65
2023/01/27 04:42:53;;;;;;;7.27;3.83;;;-2.30;99.90;;;;;;4196785;28;20633;-65
2023/01/27 04:44:54;;;;;;;11.87;5.10;;;-2.20;99.90;;;;;;4196814;28;20189;-65
2023/01/27 04:46:54;;;;;;;7.47;4.13;;;-2.10;99.90;;;;;;4197054;28;20472;-67
2023/01/27 04:48:55;;;;;;;10.43;4.80;;;-2.00;99.90;;;;;;4178784;28;20191;-66
2023/01/27 04:50:56;;;;;;;6.60;3.87;;;-1.90;99.90;;;;;;4178582;28;20218;-66
2023/01/27 04:52:57;;;;;;;7.07;4.23;;;-1.90;99.90;;;;;;4178678;28;20199;-66
2023/01/27 04:54:57;;;;;;;9.10;4.20;;;-1.90;99.90;;;;;;4178834;28;20189;-66
2023/01/27 04:57:02;;;;;;;7.27;3.80;;;-2.00;99.90;;;;;;4178800;28;20276;-66
2023/01/27 04:59:07;;;;;;;8.60;4.20;;;-1.90;99.90;;;;;;4196298;28;20246;-66
2023/01/27 05:01:08;;;;;;;8.40;4.93;;;-1.90;99.90;;;;;;4195984;28;20422;-67
2023/01/27 05:03:09;;;;;;;8.63;5.07;;;-2.00;99.90;;;;;;4179541;28;20522;-66
2023/01/27 05:05:09;;;;;;;11.67;4.93;;;-1.90;99.90;;;;;;4196952;28;20190;-66
2023/01/27 05:07:10;;;;;;;10.03;5.27;;;-1.90;99.90;;;;;;4196973;28;20522;-66
2023/01/27 05:09:11;;;;;;;10.90;5.63;;;-1.90;99.90;;;;;;4196958;28;20215;-66
2023/01/27 05:11:12;;;;;;;10.37;5.43;;;-2.10;99.90;;;;;;4195800;28;20207;-66
2023/01/27 05:13:12;;;;;;;14.53;5.87;;;-2.20;99.90;;;;;;4179342;28;20198;-66
2023/01/27 05:15:13;;;;;;;8.27;4.83;;;-2.50;99.90;;;;;;4197181;28;20425;-66
2023/01/27 05:17:14;;;;;;;12.13;6.10;;;-2.60;99.90;;;;;;4179401;28;20187;-66
2023/01/27 05:19:14;;;;;;;11.30;5.57;;;-2.50;99.90;;;;;;4197919;28;20256;-66
2023/01/27 05:21:22;;;;;;;9.40;5.50;;;-2.40;99.90;;;;;;4197052;28;20550;-66
2023/01/27 05:23:35;;;;;;;10.57;4.80;;;-2.40;99.90;;;;;;4180225;28;20196;-66
2023/01/27 05:25:36;;;;;;;9.77;4.47;;;-2.40;99.90;;;;;;4197967;28;21132;-66
2023/01/27 05:27:36;;;;;;;8.47;4.67;;;-2.30;99.90;;;;;;4197113;28;20428;-66
2023/01/27 05:29:37;;;;;;;8.37;5.10;;;-2.30;99.90;;;;;;4188247;28;20217;-66
2023/01/27 05:31:38;;;;;;;12.37;5.53;;;-2.30;99.90;;;;;;4204626;28;20218;-66
2023/01/27 05:33:40;;;;;;;10.20;5.43;;;-2.30;99.90;;;;;;4208822;28;20186;-66
2023/01/27 05:35:41;;;;;;;12.20;6.23;;;-2.20;99.90;;;;;;4195264;28;20554;-65
2023/01/27 05:37:41;;;;;;;14.20;7.80;;;-2.30;99.90;;;;;;4213616;28;20432;-65
2023/01/27 05:39:42;;;;;;;16.10;7.80;;;-2.20;99.90;;;;;;4213045;28;20200;-65
2023/01/27 05:41:42;;;;;;;12.13;5.57;;;-2.20;99.90;;;;;;4213347;28;20786;-66
2023/01/27 05:43:45;;;;;;;10.67;5.83;;;-2.10;99.90;;;;;;4213390;28;20588;-65
2023/01/27 05:45:46;;;;;;;11.30;5.40;;;-2.10;99.90;;;;;;4213540;28;20248;-65
2023/01/27 05:47:50;;;;;;;11.47;6.80;;;-2.30;99.90;;;;;;4212518;28;20424;-65
2023/01/27 05:49:51;;;;;;;12.97;5.80;;;-2.20;99.90;;;;;;4193817;28;20725;-65
2023/01/27 05:51:51;;;;;;;10.43;4.87;;;-2.30;99.90;;;;;;4212211;28;20424;-65
2023/01/27 05:53:54;;;;;;;12.10;6.03;;;-2.30;99.90;;;;;;4194485;28;20171;-65
2023/01/27 05:55:55;;;;;;;10.07;5.67;;;-2.30;99.90;;;;;;4194781;28;20179;-66
2023/01/27 05:57:55;;;;;;;14.73;4.97;;;-2.20;99.90;;;;;;4212423;28;20524;-65
2023/01/27 05:59:56;;;;;;;10.03;4.87;;;-2.30;99.90;;;;;;4211928;28;20203;-65
2023/01/27 06:01:57;;;;;;;12.87;5.87;;;-2.50;99.90;;;;;;4212591;28;20203;-66
2023/01/27 06:03:58;;;;;;;14.80;5.93;;;-2.50;99.90;;;;;;4212410;28;20182;-65
2023/01/27 06:05:58;;;;;;;13.67;6.40;;;-2.50;99.90;;;;;;4194579;28;20285;-65
2023/01/27 06:07:59;;;;;;;13.50;7.10;;;-2.50;99.90;;;;;;4212370;28;20791;-66
2023/01/27 06:10:00;;;;;;;13.50;6.30;;;-2.40;99.90;;;;;;4193540;28;20283;-66
2023/01/27 06:12:00;;;;;;;10.77;5.87;;;-2.30;99.90;;;;;;4212053;28;20175;-64
2023/01/27 06:14:01;;;;;;;10.57;6.00;;;-2.40;99.90;;;;;;4212130;28;20178;-65
2023/01/27 06:16:04;;;;;;;10.37;5.97;;;-2.50;99.90;;;;;;4212451;28;20171;-64
2023/01/27 06:18:05;;;;;;;10.33;5.33;;;-2.60;99.90;;;;;;4175170;28;20603;-64
2023/01/27 06:20:06;;;;;;;15.97;7.30;;;-2.70;99.90;;;;;;4160367;28;20443;-68
2023/01/27 06:22:07;;;;;;;10.07;5.87;;;-2.70;99.90;;;;;;4163965;28;20192;-66
2023/01/27 06:24:07;;;;;;;10.43;5.97;;;-2.60;99.90;;;;;;4195663;28;20949;-66
2023/01/27 06:26:13;;;;;;;13.03;6.20;;;-2.60;99.90;;;;;;4195873;28;20194;-67
2023/01/27 06:28:14;;;;;;;12.77;6.53;;;-2.50;99.90;;;;;;4195794;28;20559;-66
2023/01/27 06:30:15;;;;;;;13.80;6.80;;;-2.50;99.90;;;;;;4195168;28;20565;-66
2023/01/27 06:32:16;;;;;;;14.03;6.80;;;-2.50;99.90;;;;;;4195646;28;20834;-66
2023/01/27 06:34:17;;;;;;;10.83;5.40;;;-2.40;99.90;;;;;;4194379;28;20426;-66
2023/01/27 06:36:20;;;;;;;11.20;5.03;;;-2.50;99.90;;;;;;4178100;28;20208;-66
2023/01/27 06:38:21;;;;;;;11.23;5.37;;;-2.60;99.90;;;;;;4195769;28;20262;-66
2023/01/27 06:40:21;;;;;;;11.80;6.20;;;-2.60;99.90;;;;;;4194849;28;20453;-66
2023/01/27 06:42:22;;;;;;;13.07;6.63;;;-2.60;99.90;;;;;;4195642;28;20175;-66
2023/01/27 06:44:23;;;;;;;11.83;6.57;;;-2.60;99.90;;;;;;4195483;28;20182;-66
2023/01/27 06:46:23;;;;;;;13.53;5.90;;;-2.60;99.90;;;;;;4195915;28;20187;-66
2023/01/27 06:48:25;;;;;;;12.87;6.57;;;-2.60;99.90;;;;;;4177641;28;20188;-66
2023/01/27 06:50:28;;;;;;;13.57;5.60;;;-2.50;99.90;;;;;;4194813;28;20693;-66
2023/01/27 06:52:29;;;;;;;12.40;6.60;;;-2.60;99.90;;;;;;4177627;28;20964;-66
2023/01/27 06:54:29;;;;;;;10.73;5.83;;;-2.70;99.90;;;;;;4195075;28;20444;-65
2023/01/27 06:56:30;;;;;;;14.33;6.53;;;-2.70;99.90;;;;;;4195337;28;20556;-66
2023/01/27 06:58:31;;;;;;;16.67;7.73;;;-2.50;99.90;;;;;;4195258;28;20179;-66
2023/01/27 07:00:32;;;;;;;16.20;7.30;;;-2.50;99.90;;;;;;4194933;28;20870;-65
2023/01/27 07:02:33;;;;;;;16.27;7.10;;;-2.50;99.90;;;;;;4195222;28;20489;-66
2023/01/27 07:04:33;;;;;;;22.73;9.63;;;-2.60;99.90;;;;;;4195218;28;20184;-65
2023/01/27 07:06:34;;;;;;;16.73;7.03;;;-2.90;99.90;;;;;;4195367;28;20243;-66
2023/01/27 07:08:35;;;;;;;14.57;6.77;;;-3.00;99.90;;;;;;4195220;28;20190;-66
2023/01/27 07:10:37;;;;;;;19.00;8.07;;;-3.00;99.90;;;;;;4176546;28;20241;-66
2023/01/27 07:12:38;;;;;;;25.27;8.23;;;-2.90;99.90;;;;;;4177409;28;20298;-66
2023/01/27 07:14:39;;;;;;;17.37;8.13;;;-2.90;99.90;;;;;;4195029;28;20497;-66
2023/01/27 07:16:39;;;;;;;20.17;9.13;;;-2.80;99.90;;;;;;4194722;28;20183;-67
2023/01/27 07:18:40;;;;;;;26.73;9.80;;;-2.70;99.90;;;;;;4194685;28;20171;-66
2023/01/27 07:20:41;;;;;;;19.60;8.60;;;-2.50;99.90;;;;;;4194147;28;20206;-66
2023/01/27 07:22:41;;;;;;;14.90;6.90;;;-2.60;99.90;;;;;;4194710;28;20227;-66
2023/01/27 07:24:42;;;;;;;12.40;6.63;;;-2.60;99.90;;;;;;4196602;28;20222;-65
2023/01/27 07:26:46;;;;;;;15.93;7.37;;;-2.60;99.90;;;;;;4198015;28;20191;-66
2023/01/27 07:28:46;;;;;;;61.43;11.23;;;-2.60;99.90;;;;;;4197852;28;20701;-66
2023/01/27 07:30:47;;;;;;;73.17;15.90;;;-2.60;99.90;;;;;;4197537;28;20480;-66
2023/01/27 07:32:49;;;;;;;19.27;8.27;;;-2.90;99.90;;;;;;4180224;28;20180;-66
2023/01/27 07:34:49;;;;;;;23.57;10.00;;;-3.00;99.90;;;;;;4197890;28;20183;-66
2023/01/27 07:36:51;;;;;;;22.07;8.67;;;-3.00;99.90;;;;;;4198000;28;20417;-63
2023/01/27 07:38:51;;;;;;;22.53;9.03;;;-2.80;99.90;;;;;;4197820;28;20171;-65
2023/01/27 07:40:52;;;;;;;41.23;9.07;;;-2.70;99.90;;;;;;4178781;28;20430;-64
2023/01/27 07:42:53;;;;;;;20.50;8.63;;;-2.60;99.90;;;;;;4177071;28;20195;-65
2023/01/27 07:44:53;;;;;;;25.67;10.80;;;-2.50;99.90;;;;;;4197585;28;20183;-65
2023/01/27 07:46:56;;;;;;;27.93;9.53;;;-2.40;99.90;;;;;;4197895;28;20886;-64
2023/01/27 07:48:57;;;;;;;21.23;8.97;;;-2.40;99.90;;;;;;4179709;28;20713;-64
2023/01/27 07:50:58;;;;;;;18.80;8.90;;;-2.40;99.90;;;;;;4179056;28;20462;-65
2023/01/27 07:53:00;;;;;;;23.60;9.40;;;-2.40;99.90;;;;;;4197732;28;20187;-65
2023/01/27 07:55:01;;;;;;;21.53;8.77;;;-2.40;99.90;;;;;;4197539;28;20187;-65
2023/01/27 07:57:01;;;;;;;15.67;6.97;;;-2.50;99.90;;;;;;4197364;28;20476;-65
2023/01/27 07:59:03;;;;;;;19.00;8.23;;;-2.50;99.90;;;;;;4197317;28;20271;-65
2023/01/27 08:01:06;;;;;;;31.03;12.20;;;-2.40;99.90;;;;;;4179272;28;20267;-65
2023/01/27 08:03:06;;;;;;;22.93;9.50;;;-2.50;99.90;;;;;;4179536;28;20808;-65
2023/01/27 08:05:08;;;;;;;22.23;9.10;;;-2.50;99.90;;;;;;4197443;28;20430;-65
2023/01/27 08:07:08;;;;;;;16.10;7.77;;;-2.50;99.90;;;;;;4197436;28;20198;-65
2023/01/27 08:09:09;;;;;;;32.07;10.87;;;-2.40;99.90;;;;;;4197576;28;20445;-65
2023/01/27 08:11:13;;;;;;;48.43;12.27;;;-2.50;99.90;;;;;;4196968;28;20207;-65
2023/01/27 08:13:15;;;;;;;25.83;9.90;;;-2.50;99.90;;;;;;4179299;28;20249;-65
2023/01/27 08:15:15;;;;;;;49.20;9.70;;;-2.60;99.90;;;;;;4179015;28;20426;-65
2023/01/27 08:17:16;;;;;;;26.00;10.77;;;-2.60;99.90;;;;;;4195984;28;20436;-65
2023/01/27 08:19:17;;;;;;;21.20;9.60;;;-2.50;99.90;;;;;;4197021;28;20199;-65
2023/01/27 08:21:18;;;;;;;30.63;11.97;;;-2.50;99.90;;;;;;4196755;28;20239;-65
2023/01/27 08:23:20;;;;;;;21.10;9.17;;;-2.50;99.90;;;;;;4193557;28;20205;-65
2023/01/27 08:25:21;;;;;;;36.07;11.83;;;-2.60;99.90;;;;;;4179580;28;20186;-65
2023/01/27 08:27:22;;;;;;;32.43;11.57;;;-2.70;99.90;;;;;;4179626;28;20434;-65
2023/01/27 08:29:23;;;;;;;19.77;9.27;;;-3.00;99.90;;;;;;4179564;28;20218;-65
2023/01/27 08:31:24;;;;;;;23.47;8.80;;;-2.80;99.90;;;;;;4178698;28;20203;-65
2023/01/27 08:33:25;;;;;;;23.83;9.30;;;-2.70;99.90;;;;;;4197343;28;20789;-65
2023/01/27 08:35:25;;;;;;;21.57;9.57;;;-2.60;99.90;;;;;;4196966;28;20175;-65
2023/01/27 08:37:26;;;;;;;19.30;8.67;;;-2.60;99.90;;;;;;4179399;28;20189;-64
2023/01/27 08:39:27;;;;;;;20.03;8.67;;;-2.60;99.90;;;;;;4179389;28;20204;-64
2023/01/27 08:41:27;;;;;;;17.17;8.07;;;-2.50;99.90;;;;;;4196425;28;20179;-65
2023/01/27 08:43:28;;;;;;;22.10;8.90;;;-2.50;99.90;;;;;;4179151;28;20188;-65
2023/01/27 08:45:29;;;;;;;22.23;9.83;;;-2.80;99.90;;;;;;4196927;28;20606;-65
2023/01/27 08:47:29;;;;;;;18.63;8.50;;;-2.70;99.90;;;;;;4196708;28;20183;-65
2023/01/27 08:49:30;;;;;;;21.27;7.87;;;-2.60;99.90;;;;;;4188166;28;20210;-67
2023/01/27 08:51:31;;;;;;;25.30;9.70;;;-2.60;99.90;;;;;;4184589;28;20295;-66
2023/01/27 08:53:32;;;;;;;16.63;7.57;;;-2.50;99.90;;;;;;4178993;28;20186;-64
2023/01/27 08:55:33;;;;;;;15.57;7.13;;;-2.40;99.90;;;;;;4191743;28;20288;-66
2023/01/27 08:57:34;;;;;;;25.30;10.63;;;-2.30;99.90;;;;;;4170159;28;20509;-66
2023/01/27 08:59:34;;;;;;;20.53;8.50;;;-2.20;99.90;;;;;;4201379;28;20202;-66
2023/01/27 09:01:35;;;;;;;15.20;7.50;;;-2.20;99.90;;;;;;4202886;28;20184;-66
2023/01/27 09:03:36;;;;;;;35.37;9.17;;;-2.30;99.90;;;;;;4195885;28;20245;-67
2023/01/27 09:05:37;;;;;;;18.83;8.30;;;-2.40;99.90;;;;;;4185325;28;20200;-66
2023/01/27 09:07:38;;;;;;;17.20;7.37;;;-2.40;99.90;;;;;;4195578;28;20889;-65
2023/01/27 09:09:38;;;;;;;29.27;9.60;;;-2.40;99.90;;;;;;4183893;28;20617;-65
2023/01/27 09:11:42;;;;;;;20.13;8.20;;;-2.40;99.90;;;;;;4186735;28;20234;-65
2023/01/27 09:13:43;;;;;;;17.60;6.53;;;-2.50;99.90;;;;;;4167516;28;20187;-66
2023/01/27 09:15:45;;;;;;;15.60;6.90;;;-2.60;99.90;;;;;;4189779;28;20507;-66
2023/01/27 09:17:46;;;;;;;14.60;6.60;;;-2.40;99.90;;;;;;4184177;28;20180;-66
2023/01/27 09:19:46;;;;;;;13.73;6.27;;;-2.30;99.90;;;;;;4194896;28;20463;-65
2023/01/27 09:21:47;;;;;;;10.23;5.60;;;-2.20;99.90;;;;;;4195358;28;20179;-67
2023/01/27 09:23:49;;;;;;;12.53;6.13;;;-2.10;99.90;;;;;;4194959;28;20223;-66
2023/01/27 09:25:49;;;;;;;11.83;6.03;;;-2.00;99.90;;;;;;4188103;28;20187;-64
2023/01/27 09:27:55;;;;;;;14.40;6.80;;;-2.10;99.90;;;;;;4195151;28;20522;-66
2023/01/27 09:29:55;;;;;;;13.10;6.87;;;-2.20;99.90;;;;;;4194374;28;20272;-65
2023/01/27 09:31:56;;;;;;;14.03;6.77;;;-2.00;99.90;;;;;;4195362;28;20422;-66
2023/01/27 09:33:57;;;;;;;13.53;6.60;;;-2.10;99.90;;;;;;4189264;28;20194;-65
2023/01/27 09:36:16;;;;;;;12.67;6.50;;;-2.00;99.90;;;;;;4195195;28;20264;-66
2023/01/27 09:38:19;;;;;;;14.23;6.40;;;-2.20;99.90;;;;;;4195009;28;20179;-68
2023/01/27 09:40:31;;;;;;;11.17;5.63;;;-2.30;99.90;;;;;;4178146;28;20486;-66
2023/01/27 09:43:08;;;;;;;11.77;5.67;;;-2.20;99.90;;;;;;4181002;28;20419;-65
2023/01/27 09:45:41;;;;;;;12.70;5.70;;;-2.10;99.90;;;;;;4179872;28;20524;-65
2023/01/27 09:48:19;;;;;;;12.53;5.87;;;-2.00;99.90;;;;;;4189986;28;20440;-66
2023/01/27 09:50:36;;;;;;;12.20;5.67;;;-2.20;99.90;;;;;;4191145;28;20499;-67
2023/01/27 09:52:57;;;;;;;11.77;6.47;;;-2.30;99.90;;;;;;4177037;28;20473;-68
2023/01/27 09:55:34;;;;;;;11.17;5.80;;;-2.20;99.90;;;;;;4195355;28;20455;-68
2023/01/27 09:57:52;;;;;;;16.23;6.17;;;-2.10;99.90;;;;;;4194999;28;20420;-67
2023/01/27 10:00:07;;;;;;;13.00;6.07;;;-2.20;99.90;;;;;;4194535;28;20438;-68
2023/01/27 10:02:33;;;;;;;13.60;6.33;;;-2.20;99.90;;;;;;4179975;28;20490;-67
2023/01/27 10:04:59;;;;;;;14.17;7.57;;;-2.20;99.90;;;;;;4192810;28;20451;-70
2023/01/27 10:07:32;;;;;;;15.00;7.63;;;-2.20;99.90;;;;;;4160951;28;20458;-68
2023/01/27 10:09:48;;;;;;;13.57;7.63;;;-2.20;99.90;;;;;;4199332;28;20506;-66
2023/01/27 10:12:24;;;;;;;13.57;6.67;;;-2.20;99.90;;;;;;4200526;28;20981;-65
2023/01/27 10:15:13;;;;;;;13.63;7.07;;;-2.10;99.90;;;;;;4177660;28;20427;-68
2023/01/27 10:17:30;;;;;;;17.80;7.30;;;-2.00;99.90;;;;;;4150734;28;20518;-67
2023/01/27 10:19:55;;;;;;;13.13;6.47;;;-2.10;99.90;;;;;;4203011;28;20448;-66
2023/01/27 10:22:14;;;;;;;14.63;7.27;;;-2.00;99.90;;;;;;4181970;28;20431;-65
2023/01/27 10:24:58;;;;;;;15.27;8.07;;;-2.00;99.90;;;;;;4194917;28;20416;-65
2023/01/27 10:27:16;;;;;;;15.87;7.43;;;-1.90;99.90;;;;;;4168004;28;20482;-65
2023/01/27 10:29:39;;;;;;;16.70;7.67;;;-1.80;99.90;;;;;;4194177;28;20511;-65
2023/01/27 10:31:58;;;;;;;13.87;7.97;;;-1.70;99.90;;;;;;4183682;28;20862;-66
2023/01/27 10:34:11;;;;;;;17.13;9.50;;;-1.60;99.90;;;;;;4188429;28;20432;-66
2023/01/27 10:36:40;;;;;;;14.97;8.00;;;-1.40;99.90;;;;;;4162198;28;20473;-66
2023/01/27 10:38:52;;;;;;;15.27;7.47;;;-1.20;99.90;;;;;;4163154;28;20418;-65
2023/01/27 10:41:31;;;;;;;16.57;7.20;;;-1.20;99.90;;;;;;4194590;28;20414;-65
2023/01/27 10:44:11;;;;;;;16.30;7.63;;;-1.20;99.90;;;;;;4195220;28;20449;-66
2023/01/27 10:46:24;;;;;;;13.67;7.40;;;-1.10;99.90;;;;;;4164089;28;20434;-68
2023/01/27 10:48:51;;;;;;;15.17;7.83;;;-1.30;99.90;;;;;;4193817;28;20508;-66
2023/01/27 10:51:13;;;;;;;16.23;7.40;;;-1.30;99.90;;;;;;4180500;28;20467;-66
2023/01/27 10:53:24;;;;;;;12.93;6.73;;;-1.10;99.90;;;;;;4176865;28;20414;-66
2023/01/27 10:55:36;;;;;;;13.53;6.97;;;-1.00;99.90;;;;;;4187627;28;20923;-67
2023/01/27 10:57:46;;;;;;;14.83;7.13;;;-1.00;99.90;;;;;;4167538;28;20432;-66
2023/01/27 11:00:05;;;;;;;13.50;7.50;;;-1.00;99.90;;;;;;4191296;28;20522;-66
2023/01/27 11:02:08;;;;;;;15.27;7.47;;;-1.10;99.90;;;;;;4184102;28;20472;-67
2023/01/27 11:04:18;;;;;;;11.23;6.67;;;-1.30;99.90;;;;;;4197802;28;20415;-66
2023/01/27 11:06:28;;;;;;;14.00;8.30;;;-1.30;99.90;;;;;;4198251;28;20903;-65
2023/01/27 11:08:34;;;;;;;16.43;8.23;;;-1.20;99.90;;;;;;4196482;28;20422;-66
2023/01/27 11:11:42;;;;;;;13.40;7.90;;;-1.40;99.90;;;;;;4164604;28;20465;-67